Lesley Pg — MXUG5 — position and weather

sailwx.info

Track history (hours):
 
Tides and Currents Weather Stations Pressure Air Temp Water Temp Dewpoint Dewpoint Depression Visibility Wind Speed Wind Dir Waves Ship Positions

Lesley Pg

Last reported at 2015-Sep-01 17:33 UTC. Time now 2015-Sep-02 02:27 UTC.
Position N 16°16' W 062°03'.

Length 102 m; draft 6.5 m.

Type: Tanker. MMSI: 234910000.

Date/timePositionNaut miles runAvg speedWind from/ knotsBaromVisibWave heightAir tempDewpointWater temp
2015-Sep-01 17:33N 16°16' W 062°03'1010.2
2015-Sep-01 16:33N 16°24' W 062°10'1010.0
2015-Sep-01 15:33N 16°33' W 062°15'10 9.7
2015-Sep-01 14:33N 16°41' W 062°20'7210.0
2015-Sep-01 07:21N 17°40' W 063°04'8 9.8
2015-Sep-01 06:33N 17°48' W 063°04'10 9.9
2015-Sep-01 05:33N 17°58' W 063°05'3 2.7
2015-Sep-01 04:22N 18°01' W 063°05'0 0.0
2015-Sep-01 03:22N 18°01' W 063°05'0 0.0
2015-Sep-01 02:22N 18°01' W 063°05'0 0.0
2015-Sep-01 01:25N 18°01' W 063°05'0 0.0
2015-Sep-01 00:28N 18°01' W 063°05'0 0.0
2015-Aug-31 23:28N 18°01' W 063°05'0 0.0
2015-Aug-31 22:28N 18°01' W 063°05'0 0.0
2015-Aug-31 21:28N 18°01' W 063°05'0 0.0
2015-Aug-31 19:31N 18°01' W 063°05'5 5.5
2015-Aug-31 18:33N 17°60' W 063°11'10 9.9
2015-Aug-31 17:33N 17°59' W 063°21'1010.0
2015-Aug-31 16:33N 17°58' W 063°31'138 9.9
2015-Aug-31 02:31N 17°47' W 065°56'9 9.3
2015-Aug-31 01:33N 17°47' W 066°06'9 9.5
2015-Aug-31 00:33N 17°47' W 066°16'10 9.6
2015-Aug-30 23:33N 17°47' W 066°26'10 9.7
2015-Aug-30 22:33N 17°47' W 066°36'1010.1
2015-Aug-30 21:33N 17°54' W 066°44'5 0.2
2015-Aug-29 13:33N 17°59' W 066°46'6 6.0
2015-Aug-29 12:33N 17°53' W 066°43'1010.5
2015-Aug-29 11:33N 17°47' W 066°35'9 9.1
2015-Aug-29 10:33N 17°45' W 066°25'10 9.5
2015-Aug-29 09:33N 17°43' W 066°16'9 8.6
2015-Aug-29 08:33N 17°41' W 066°07'3 3.2
2015-Aug-29 07:33N 17°39' W 066°04'9 8.9
2015-Aug-29 06:32N 17°42' W 065°55'3 0.9
2015-Aug-29 03:06N 17°45' W 065°54'3 5.8
2015-Aug-29 02:33N 17°45' W 065°57'6 6.0
2015-Aug-29 01:33N 17°45' W 066°03'5 5.4
2015-Aug-29 00:33N 17°45' W 066°09'5 5.2
2015-Aug-28 23:33N 17°45' W 066°15'5 4.8
2015-Aug-28 22:33N 17°45' W 066°20'5 4.8
2015-Aug-28 21:33N 17°45' W 066°25'4 3.6
2015-Aug-28 20:33N 17°45' W 066°28'5 5.0
2015-Aug-28 19:33N 17°41' W 066°25'10 0.4
2015-Aug-27 19:33N 17°32' W 066°28'8 8.2
2015-Aug-27 18:33N 17°39' W 066°32'9 8.8
2015-Aug-27 17:33N 17°47' W 066°36'1 1.0
2015-Aug-27 16:33N 17°48' W 066°36'1 1.0
2015-Aug-27 15:33N 17°47' W 066°36'1 0.8
2015-Aug-27 14:33N 17°47' W 066°35'1 0.8
2015-Aug-27 13:33N 17°47' W 066°34'1 0.9
2015-Aug-27 12:33N 17°47' W 066°33'1010.3
2015-Aug-27 11:33N 17°47' W 066°22'1010.5
2015-Aug-27 10:33N 17°47' W 066°11'1110.7
2015-Aug-27 09:33N 17°47' W 065°60'13411.0
2015-Aug-26 21:20N 17°58' W 063°39'3 4.0
2015-Aug-26 20:33N 17°58' W 063°36'1211.7
2015-Aug-26 19:30N 17°59' W 063°23'1111.5
2015-Aug-26 18:33N 17°60' W 063°11'6 2.6
2015-Aug-26 16:11N 18°01' W 063°05'0 0.0
2015-Aug-26 15:32N 18°01' W 063°05'0 0.0
2015-Aug-26 14:32N 18°01' W 063°05'0 0.0
2015-Aug-26 13:29N 18°01' W 063°05'0 0.0
2015-Aug-26 12:32N 18°01' W 063°05'2 1.8
2015-Aug-26 11:33N 17°59' W 063°05'1110.7
2015-Aug-26 10:33N 17°49' W 063°04'7210.4
2015-Aug-26 03:33N 16°47' W 062°25'1311.1
2015-Aug-26 02:24N 16°35' W 062°19'1211.5
2015-Aug-26 01:21N 16°26' W 062°11'4510.6
2015-Aug-25 21:05N 15°48' W 061°46'811.2
2015-Aug-25 20:20N 15°40' W 061°43'5311.0
2015-Aug-25 15:32N 14°49' W 061°28'1010.4
2015-Aug-25 14:33N 14°40' W 061°24'1111.4
2015-Aug-25 13:33N 14°29' W 061°20'1211.6
2015-Aug-25 12:33N 14°19' W 061°15'1110.9
2015-Aug-25 11:31N 14°09' W 061°09'11 0.9
2015-Aug-24 22:21N 13°59' W 061°02'4 3.8
2015-Aug-24 21:16N 13°56' W 061°04'1 0.7
2015-Aug-24 20:21N 13°56' W 061°04'1 0.9
2015-Aug-24 19:13N 13°57' W 061°04'2 0.8
2015-Aug-24 17:09N 13°59' W 061°03'  
Track history (hours):
 
Tides and Currents Weather Stations Pressure Air Temp Water Temp Dewpoint Dewpoint Depression Visibility Wind Speed Wind Dir Waves Ship Positions

Lesley Pg

Last reported at 2015-Sep-01 17:33 UTC. Time now 2015-Sep-02 02:27 UTC.
Position N 16°16' W 062°03'.

Length 102 m; draft 6.5 m.

Type: Tanker. MMSI: 234910000.

Date/timePositionNaut miles runAvg speedWind from/ knotsBaromVisibWave heightAir tempDewpointWater temp
2015-Sep-01 17:33N 16°16' W 062°03'1010.2
2015-Sep-01 16:33N 16°24' W 062°10'1010.0
2015-Sep-01 15:33N 16°33' W 062°15'10 9.7
2015-Sep-01 14:33N 16°41' W 062°20'7210.0
2015-Sep-01 07:21N 17°40' W 063°04'8 9.8
2015-Sep-01 06:33N 17°48' W 063°04'10 9.9
2015-Sep-01 05:33N 17°58' W 063°05'3 2.7
2015-Sep-01 04:22N 18°01' W 063°05'0 0.0
2015-Sep-01 03:22N 18°01' W 063°05'0 0.0
2015-Sep-01 02:22N 18°01' W 063°05'0 0.0
2015-Sep-01 01:25N 18°01' W 063°05'0 0.0
2015-Sep-01 00:28N 18°01' W 063°05'0 0.0
2015-Aug-31 23:28N 18°01' W 063°05'0 0.0
2015-Aug-31 22:28N 18°01' W 063°05'0 0.0
2015-Aug-31 21:28N 18°01' W 063°05'0 0.0
2015-Aug-31 19:31N 18°01' W 063°05'5 5.5
2015-Aug-31 18:33N 17°60' W 063°11'10 9.9
2015-Aug-31 17:33N 17°59' W 063°21'1010.0
2015-Aug-31 16:33N 17°58' W 063°31'138 9.9
2015-Aug-31 02:31N 17°47' W 065°56'9 9.3
2015-Aug-31 01:33N 17°47' W 066°06'9 9.5
2015-Aug-31 00:33N 17°47' W 066°16'10 9.6
2015-Aug-30 23:33N 17°47' W 066°26'10 9.7
2015-Aug-30 22:33N 17°47' W 066°36'1010.1
2015-Aug-30 21:33N 17°54' W 066°44'5 0.2
2015-Aug-29 13:33N 17°59' W 066°46'6 6.0
2015-Aug-29 12:33N 17°53' W 066°43'1010.5
2015-Aug-29 11:33N 17°47' W 066°35'9 9.1
2015-Aug-29 10:33N 17°45' W 066°25'10 9.5
2015-Aug-29 09:33N 17°43' W 066°16'9 8.6
2015-Aug-29 08:33N 17°41' W 066°07'3 3.2
2015-Aug-29 07:33N 17°39' W 066°04'9 8.9
2015-Aug-29 06:32N 17°42' W 065°55'3 0.9
2015-Aug-29 03:06N 17°45' W 065°54'3 5.8
2015-Aug-29 02:33N 17°45' W 065°57'6 6.0
2015-Aug-29 01:33N 17°45' W 066°03'5 5.4
2015-Aug-29 00:33N 17°45' W 066°09'5 5.2
2015-Aug-28 23:33N 17°45' W 066°15'5 4.8
2015-Aug-28 22:33N 17°45' W 066°20'5 4.8
2015-Aug-28 21:33N 17°45' W 066°25'4 3.6
2015-Aug-28 20:33N 17°45' W 066°28'5 5.0
2015-Aug-28 19:33N 17°41' W 066°25'10 0.4
2015-Aug-27 19:33N 17°32' W 066°28'8 8.2
2015-Aug-27 18:33N 17°39' W 066°32'9 8.8
2015-Aug-27 17:33N 17°47' W 066°36'1 1.0
2015-Aug-27 16:33N 17°48' W 066°36'1 1.0
2015-Aug-27 15:33N 17°47' W 066°36'1 0.8
2015-Aug-27 14:33N 17°47' W 066°35'1 0.8
2015-Aug-27 13:33N 17°47' W 066°34'1 0.9
2015-Aug-27 12:33N 17°47' W 066°33'1010.3
2015-Aug-27 11:33N 17°47' W 066°22'1010.5
2015-Aug-27 10:33N 17°47' W 066°11'1110.7
2015-Aug-27 09:33N 17°47' W 065°60'13411.0
2015-Aug-26 21:20N 17°58' W 063°39'3 4.0
2015-Aug-26 20:33N 17°58' W 063°36'1211.7
2015-Aug-26 19:30N 17°59' W 063°23'1111.5
2015-Aug-26 18:33N 17°60' W 063°11'6 2.6
2015-Aug-26 16:11N 18°01' W 063°05'0 0.0
2015-Aug-26 15:32N 18°01' W 063°05'0 0.0
2015-Aug-26 14:32N 18°01' W 063°05'0 0.0
2015-Aug-26 13:29N 18°01' W 063°05'0 0.0
2015-Aug-26 12:32N 18°01' W 063°05'2 1.8
2015-Aug-26 11:33N 17°59' W 063°05'1110.7
2015-Aug-26 10:33N 17°49' W 063°04'7210.4
2015-Aug-26 03:33N 16°47' W 062°25'1311.1
2015-Aug-26 02:24N 16°35' W 062°19'1211.5
2015-Aug-26 01:21N 16°26' W 062°11'4510.6
2015-Aug-25 21:05N 15°48' W 061°46'811.2
2015-Aug-25 20:20N 15°40' W 061°43'5311.0
2015-Aug-25 15:32N 14°49' W 061°28'1010.4
2015-Aug-25 14:33N 14°40' W 061°24'1111.4
2015-Aug-25 13:33N 14°29' W 061°20'1211.6
2015-Aug-25 12:33N 14°19' W 061°15'1110.9
2015-Aug-25 11:31N 14°09' W 061°09'11 0.9
2015-Aug-24 22:21N 13°59' W 061°02'4 3.8
2015-Aug-24 21:16N 13°56' W 061°04'1 0.7
2015-Aug-24 20:21N 13°56' W 061°04'1 0.9
2015-Aug-24 19:13N 13°57' W 061°04'2 0.8
2015-Aug-24 17:09N 13°59' W 061°03'  

Dump ship's entire track history